sensor_id;sensor_type;location;lat;lon;timestamp;P1;durP1;ratioP1;P2;durP2;ratioP2
75667;SDS011;64266;48.798;44.756;2024-01-07T00:01:39;26.02;;;12.18;;
75667;SDS011;64266;48.798;44.756;2024-01-07T00:06:50;25.02;;;12.13;;
75667;SDS011;64266;48.798;44.756;2024-01-07T00:11:55;24.50;;;10.38;;
75667;SDS011;64266;48.798;44.756;2024-01-07T00:16:58;26.75;;;11.00;;
75667;SDS011;64266;48.798;44.756;2024-01-07T00:22:03;22.90;;;11.07;;
75667;SDS011;64266;48.798;44.756;2024-01-07T00:27:06;31.45;;;12.27;;
75667;SDS011;64266;48.798;44.756;2024-01-07T00:32:10;23.90;;;11.25;;
75667;SDS011;64266;48.798;44.756;2024-01-07T00:37:13;23.92;;;11.82;;
75667;SDS011;64266;48.798;44.756;2024-01-07T00:42:17;21.17;;;10.02;;
75667;SDS011;64266;48.798;44.756;2024-01-07T00:47:21;29.30;;;12.45;;
75667;SDS011;64266;48.798;44.756;2024-01-07T00:52:25;24.42;;;11.77;;
75667;SDS011;64266;48.798;44.756;2024-01-07T00:57:28;23.95;;;10.70;;
75667;SDS011;64266;48.798;44.756;2024-01-07T01:02:31;24.73;;;10.77;;
75667;SDS011;64266;48.798;44.756;2024-01-07T01:07:35;26.95;;;10.63;;
75667;SDS011;64266;48.798;44.756;2024-01-07T01:12:37;27.23;;;11.60;;
75667;SDS011;64266;48.798;44.756;2024-01-07T01:17:40;17.63;;;7.97;;
75667;SDS011;64266;48.798;44.756;2024-01-07T01:22:43;23.88;;;10.15;;
75667;SDS011;64266;48.798;44.756;2024-01-07T01:27:46;24.38;;;10.30;;
75667;SDS011;64266;48.798;44.756;2024-01-07T01:32:49;28.02;;;10.85;;
75667;SDS011;64266;48.798;44.756;2024-01-07T01:37:52;23.10;;;10.70;;
75667;SDS011;64266;48.798;44.756;2024-01-07T01:42:56;25.85;;;10.70;;
75667;SDS011;64266;48.798;44.756;2024-01-07T01:48:00;20.95;;;9.95;;
75667;SDS011;64266;48.798;44.756;2024-01-07T01:53:04;19.95;;;8.90;;
75667;SDS011;64266;48.798;44.756;2024-01-07T01:58:07;23.42;;;10.40;;
75667;SDS011;64266;48.798;44.756;2024-01-07T02:03:11;24.75;;;10.45;;
75667;SDS011;64266;48.798;44.756;2024-01-07T02:08:14;25.13;;;10.80;;
75667;SDS011;64266;48.798;44.756;2024-01-07T02:13:19;20.83;;;9.15;;
75667;SDS011;64266;48.798;44.756;2024-01-07T02:18:24;21.88;;;10.10;;
75667;SDS011;64266;48.798;44.756;2024-01-07T02:23:27;23.00;;;10.35;;
75667;SDS011;64266;48.798;44.756;2024-01-07T02:28:32;24.80;;;10.63;;
75667;SDS011;64266;48.798;44.756;2024-01-07T02:33:35;23.70;;;9.90;;
75667;SDS011;64266;48.798;44.756;2024-01-07T02:38:38;22.73;;;10.13;;
75667;SDS011;64266;48.798;44.756;2024-01-07T02:43:41;24.15;;;10.68;;
75667;SDS011;64266;48.798;44.756;2024-01-07T02:48:44;19.52;;;8.90;;
75667;SDS011;64266;48.798;44.756;2024-01-07T02:53:48;20.00;;;8.48;;
75667;SDS011;64266;48.798;44.756;2024-01-07T02:58:50;20.30;;;9.07;;
75667;SDS011;64266;48.798;44.756;2024-01-07T03:03:53;19.58;;;9.52;;
75667;SDS011;64266;48.798;44.756;2024-01-07T03:08:57;19.35;;;7.82;;
75667;SDS011;64266;48.798;44.756;2024-01-07T03:13:59;21.63;;;9.48;;
75667;SDS011;64266;48.798;44.756;2024-01-07T03:19:02;20.23;;;8.75;;
75667;SDS011;64266;48.798;44.756;2024-01-07T03:24:06;20.35;;;9.65;;
75667;SDS011;64266;48.798;44.756;2024-01-07T03:29:09;20.63;;;8.35;;
75667;SDS011;64266;48.798;44.756;2024-01-07T03:34:12;21.25;;;10.43;;
75667;SDS011;64266;48.798;44.756;2024-01-07T03:39:16;23.88;;;9.98;;
75667;SDS011;64266;48.798;44.756;2024-01-07T03:44:19;20.63;;;10.13;;
75667;SDS011;64266;48.798;44.756;2024-01-07T03:49:22;19.75;;;9.75;;
75667;SDS011;64266;48.798;44.756;2024-01-07T03:54:25;19.40;;;8.88;;
75667;SDS011;64266;48.798;44.756;2024-01-07T03:59:28;20.70;;;9.18;;
75667;SDS011;64266;48.798;44.756;2024-01-07T04:04:31;23.42;;;9.13;;
75667;SDS011;64266;48.798;44.756;2024-01-07T04:09:35;23.45;;;10.23;;
75667;SDS011;64266;48.798;44.756;2024-01-07T04:14:40;19.77;;;9.32;;
75667;SDS011;64266;48.798;44.756;2024-01-07T04:19:45;20.05;;;9.73;;
75667;SDS011;64266;48.798;44.756;2024-01-07T04:24:48;24.30;;;9.70;;
75667;SDS011;64266;48.798;44.756;2024-01-07T04:29:51;21.10;;;9.63;;
75667;SDS011;64266;48.798;44.756;2024-01-07T04:34:54;20.83;;;10.85;;
75667;SDS011;64266;48.798;44.756;2024-01-07T04:40:02;23.60;;;11.18;;
75667;SDS011;64266;48.798;44.756;2024-01-07T04:45:06;20.52;;;10.32;;
75667;SDS011;64266;48.798;44.756;2024-01-07T04:50:09;26.05;;;10.88;;
75667;SDS011;64266;48.798;44.756;2024-01-07T04:55:12;20.55;;;9.98;;
75667;SDS011;64266;48.798;44.756;2024-01-07T05:00:15;24.40;;;11.02;;
75667;SDS011;64266;48.798;44.756;2024-01-07T05:05:19;21.35;;;10.27;;
75667;SDS011;64266;48.798;44.756;2024-01-07T05:10:22;22.90;;;11.70;;
75667;SDS011;64266;48.798;44.756;2024-01-07T05:15:25;21.23;;;10.30;;
75667;SDS011;64266;48.798;44.756;2024-01-07T05:20:29;24.67;;;10.38;;
75667;SDS011;64266;48.798;44.756;2024-01-07T05:25:33;24.58;;;11.75;;
75667;SDS011;64266;48.798;44.756;2024-01-07T05:30:36;22.52;;;10.93;;
75667;SDS011;64266;48.798;44.756;2024-01-07T05:35:39;23.10;;;10.95;;
75667;SDS011;64266;48.798;44.756;2024-01-07T05:40:43;21.52;;;10.88;;
75667;SDS011;64266;48.798;44.756;2024-01-07T05:45:45;23.30;;;10.13;;
75667;SDS011;64266;48.798;44.756;2024-01-07T05:50:50;24.83;;;11.43;;
75667;SDS011;64266;48.798;44.756;2024-01-07T05:55:53;22.52;;;10.88;;
75667;SDS011;64266;48.798;44.756;2024-01-07T06:00:56;25.92;;;11.40;;
75667;SDS011;64266;48.798;44.756;2024-01-07T06:06:00;21.33;;;10.57;;
75667;SDS011;64266;48.798;44.756;2024-01-07T06:11:03;27.52;;;11.40;;
75667;SDS011;64266;48.798;44.756;2024-01-07T06:16:07;25.80;;;10.73;;
75667;SDS011;64266;48.798;44.756;2024-01-07T06:21:10;29.25;;;13.15;;
75667;SDS011;64266;48.798;44.756;2024-01-07T06:26:14;30.20;;;12.63;;
75667;SDS011;64266;48.798;44.756;2024-01-07T06:31:17;26.92;;;12.88;;
75667;SDS011;64266;48.798;44.756;2024-01-07T06:36:21;30.95;;;13.82;;
75667;SDS011;64266;48.798;44.756;2024-01-07T06:41:25;30.75;;;12.80;;
75667;SDS011;64266;48.798;44.756;2024-01-07T06:46:28;26.77;;;12.00;;
75667;SDS011;64266;48.798;44.756;2024-01-07T06:51:31;27.30;;;12.05;;
75667;SDS011;64266;48.798;44.756;2024-01-07T06:56:34;24.67;;;12.40;;
75667;SDS011;64266;48.798;44.756;2024-01-07T07:01:36;20.92;;;11.25;;
75667;SDS011;64266;48.798;44.756;2024-01-07T07:06:41;20.90;;;11.80;;
75667;SDS011;64266;48.798;44.756;2024-01-07T07:11:44;23.55;;;11.05;;
75667;SDS011;64266;48.798;44.756;2024-01-07T07:16:47;26.85;;;12.05;;
75667;SDS011;64266;48.798;44.756;2024-01-07T07:21:50;21.95;;;10.20;;
75667;SDS011;64266;48.798;44.756;2024-01-07T07:26:53;23.75;;;10.82;;
75667;SDS011;64266;48.798;44.756;2024-01-07T07:31:56;26.70;;;11.43;;
75667;SDS011;64266;48.798;44.756;2024-01-07T07:36:59;21.77;;;10.63;;
75667;SDS011;64266;48.798;44.756;2024-01-07T07:42:03;21.85;;;11.35;;
75667;SDS011;64266;48.798;44.756;2024-01-07T07:47:07;26.95;;;12.27;;
75667;SDS011;64266;48.798;44.756;2024-01-07T07:52:10;24.05;;;11.70;;
75667;SDS011;64266;48.798;44.756;2024-01-07T07:57:13;22.45;;;10.82;;
75667;SDS011;64266;48.798;44.756;2024-01-07T08:02:17;18.15;;;9.55;;
75667;SDS011;64266;48.798;44.756;2024-01-07T08:07:20;22.60;;;10.38;;
75667;SDS011;64266;48.798;44.756;2024-01-07T08:12:23;18.52;;;10.15;;
75667;SDS011;64266;48.798;44.756;2024-01-07T08:17:27;25.00;;;10.27;;
75667;SDS011;64266;48.798;44.756;2024-01-07T08:22:31;15.15;;;9.07;;
75667;SDS011;64266;48.798;44.756;2024-01-07T08:27:34;17.20;;;10.00;;
75667;SDS011;64266;48.798;44.756;2024-01-07T08:32:38;18.42;;;9.95;;
75667;SDS011;64266;48.798;44.756;2024-01-07T08:37:40;17.33;;;8.45;;
75667;SDS011;64266;48.798;44.756;2024-01-07T08:42:43;20.50;;;10.13;;
75667;SDS011;64266;48.798;44.756;2024-01-07T08:47:46;19.58;;;8.90;;
75667;SDS011;64266;48.798;44.756;2024-01-07T08:52:50;18.40;;;9.13;;
75667;SDS011;64266;48.798;44.756;2024-01-07T08:57:56;19.70;;;9.68;;
75667;SDS011;64266;48.798;44.756;2024-01-07T09:03:01;21.65;;;9.07;;
75667;SDS011;64266;48.798;44.756;2024-01-07T09:08:05;20.38;;;9.88;;
75667;SDS011;64266;48.798;44.756;2024-01-07T09:13:09;23.40;;;9.70;;
75667;SDS011;64266;48.798;44.756;2024-01-07T09:18:13;21.67;;;10.57;;
75667;SDS011;64266;48.798;44.756;2024-01-07T09:23:16;22.85;;;10.40;;
75667;SDS011;64266;48.798;44.756;2024-01-07T09:28:19;26.15;;;12.07;;
75667;SDS011;64266;48.798;44.756;2024-01-07T09:33:22;25.90;;;12.35;;
75667;SDS011;64266;48.798;44.756;2024-01-07T09:38:28;24.40;;;11.73;;
75667;SDS011;64266;48.798;44.756;2024-01-07T09:43:31;21.77;;;10.25;;
75667;SDS011;64266;48.798;44.756;2024-01-07T09:48:38;20.58;;;10.85;;
75667;SDS011;64266;48.798;44.756;2024-01-07T09:53:41;20.65;;;9.85;;
75667;SDS011;64266;48.798;44.756;2024-01-07T09:58:48;22.92;;;10.02;;
75667;SDS011;64266;48.798;44.756;2024-01-07T10:03:52;26.27;;;11.40;;
75667;SDS011;64266;48.798;44.756;2024-01-07T10:08:55;27.50;;;11.55;;
75667;SDS011;64266;48.798;44.756;2024-01-07T10:13:58;36.38;;;17.85;;
75667;SDS011;64266;48.798;44.756;2024-01-07T10:19:02;25.00;;;11.75;;
75667;SDS011;64266;48.798;44.756;2024-01-07T10:24:11;25.35;;;10.90;;
75667;SDS011;64266;48.798;44.756;2024-01-07T10:29:16;17.40;;;8.63;;
75667;SDS011;64266;48.798;44.756;2024-01-07T10:34:38;18.55;;;7.82;;
75667;SDS011;64266;48.798;44.756;2024-01-07T10:39:43;18.25;;;7.25;;
75667;SDS011;64266;48.798;44.756;2024-01-07T10:44:46;16.38;;;7.45;;
75667;SDS011;64266;48.798;44.756;2024-01-07T10:49:50;12.95;;;5.60;;
75667;SDS011;64266;48.798;44.756;2024-01-07T10:54:56;17.08;;;6.88;;
75667;SDS011;64266;48.798;44.756;2024-01-07T11:00:00;15.43;;;5.63;;
75667;SDS011;64266;48.798;44.756;2024-01-07T11:05:11;12.45;;;5.60;;
75667;SDS011;64266;48.798;44.756;2024-01-07T11:10:22;10.48;;;4.95;;
75667;SDS011;64266;48.798;44.756;2024-01-07T11:20:52;10.68;;;4.80;;
75667;SDS011;64266;48.798;44.756;2024-01-07T11:25:56;10.23;;;4.60;;
75667;SDS011;64266;48.798;44.756;2024-01-07T11:31:00;7.95;;;2.85;;
75667;SDS011;64266;48.798;44.756;2024-01-07T11:36:04;9.73;;;4.15;;
75667;SDS011;64266;48.798;44.756;2024-01-07T11:41:08;8.23;;;3.00;;
75667;SDS011;64266;48.798;44.756;2024-01-07T11:46:13;9.85;;;3.50;;
75667;SDS011;64266;48.798;44.756;2024-01-07T11:51:17;7.82;;;3.38;;
75667;SDS011;64266;48.798;44.756;2024-01-07T11:56:20;10.68;;;3.85;;
75667;SDS011;64266;48.798;44.756;2024-01-07T12:01:23;6.90;;;3.33;;
75667;SDS011;64266;48.798;44.756;2024-01-07T12:06:29;6.10;;;2.83;;
75667;SDS011;64266;48.798;44.756;2024-01-07T12:11:33;5.95;;;2.20;;
75667;SDS011;64266;48.798;44.756;2024-01-07T12:16:36;8.25;;;2.90;;
75667;SDS011;64266;48.798;44.756;2024-01-07T12:21:40;6.82;;;2.65;;
75667;SDS011;64266;48.798;44.756;2024-01-07T12:26:43;8.05;;;3.47;;
75667;SDS011;64266;48.798;44.756;2024-01-07T12:31:46;8.25;;;3.03;;
75667;SDS011;64266;48.798;44.756;2024-01-07T12:36:56;8.95;;;3.72;;
75667;SDS011;64266;48.798;44.756;2024-01-07T12:42:13;9.63;;;3.38;;
75667;SDS011;64266;48.798;44.756;2024-01-07T12:47:16;7.55;;;3.45;;
75667;SDS011;64266;48.798;44.756;2024-01-07T12:52:19;12.38;;;4.85;;
75667;SDS011;64266;48.798;44.756;2024-01-07T12:57:23;7.75;;;3.10;;
75667;SDS011;64266;48.798;44.756;2024-01-07T13:02:27;11.35;;;4.53;;
75667;SDS011;64266;48.798;44.756;2024-01-07T13:07:31;11.10;;;4.25;;
75667;SDS011;64266;48.798;44.756;2024-01-07T13:12:34;9.65;;;5.20;;
75667;SDS011;64266;48.798;44.756;2024-01-07T13:17:50;10.00;;;4.20;;
75667;SDS011;64266;48.798;44.756;2024-01-07T13:22:54;10.15;;;5.13;;
75667;SDS011;64266;48.798;44.756;2024-01-07T13:27:57;18.45;;;8.55;;
75667;SDS011;64266;48.798;44.756;2024-01-07T13:33:00;29.80;;;8.13;;
75667;SDS011;64266;48.798;44.756;2024-01-07T13:38:08;21.58;;;5.97;;
75667;SDS011;64266;48.798;44.756;2024-01-07T13:43:12;36.83;;;9.70;;
75667;SDS011;64266;48.798;44.756;2024-01-07T13:48:15;22.35;;;7.80;;
75667;SDS011;64266;48.798;44.756;2024-01-07T13:53:19;25.48;;;8.52;;
75667;SDS011;64266;48.798;44.756;2024-01-07T13:58:22;28.27;;;8.32;;
75667;SDS011;64266;48.798;44.756;2024-01-07T14:03:28;22.05;;;9.02;;
75667;SDS011;64266;48.798;44.756;2024-01-07T14:08:41;27.73;;;12.10;;
75667;SDS011;64266;48.798;44.756;2024-01-07T14:13:45;22.48;;;8.85;;
75667;SDS011;64266;48.798;44.756;2024-01-07T14:18:48;23.23;;;10.43;;
75667;SDS011;64266;48.798;44.756;2024-01-07T14:23:51;31.17;;;10.85;;
75667;SDS011;64266;48.798;44.756;2024-01-07T14:28:54;24.58;;;9.13;;
75667;SDS011;64266;48.798;44.756;2024-01-07T14:34:15;24.08;;;9.93;;
75667;SDS011;64266;48.798;44.756;2024-01-07T14:39:19;25.40;;;9.73;;
75667;SDS011;64266;48.798;44.756;2024-01-07T14:44:22;20.83;;;9.93;;
75667;SDS011;64266;48.798;44.756;2024-01-07T14:49:41;25.30;;;10.20;;
75667;SDS011;64266;48.798;44.756;2024-01-07T14:54:44;17.58;;;7.47;;
75667;SDS011;64266;48.798;44.756;2024-01-07T14:59:48;21.02;;;8.57;;
75667;SDS011;64266;48.798;44.756;2024-01-07T15:04:53;16.77;;;7.88;;
75667;SDS011;64266;48.798;44.756;2024-01-07T15:09:57;20.98;;;7.07;;
75667;SDS011;64266;48.798;44.756;2024-01-07T15:15:02;34.45;;;8.25;;
75667;SDS011;64266;48.798;44.756;2024-01-07T15:20:08;38.42;;;8.82;;
75667;SDS011;64266;48.798;44.756;2024-01-07T15:25:15;36.00;;;9.80;;
75667;SDS011;64266;48.798;44.756;2024-01-07T15:30:20;33.03;;;9.07;;
75667;SDS011;64266;48.798;44.756;2024-01-07T15:35:24;35.22;;;7.57;;
75667;SDS011;64266;48.798;44.756;2024-01-07T15:40:29;32.42;;;8.63;;
75667;SDS011;64266;48.798;44.756;2024-01-07T15:45:33;18.75;;;6.63;;
75667;SDS011;64266;48.798;44.756;2024-01-07T15:50:38;30.50;;;7.40;;
75667;SDS011;64266;48.798;44.756;2024-01-07T15:55:42;41.08;;;9.38;;
75667;SDS011;64266;48.798;44.756;2024-01-07T16:00:45;38.95;;;11.00;;
75667;SDS011;64266;48.798;44.756;2024-01-07T16:05:49;33.58;;;8.65;;
75667;SDS011;64266;48.798;44.756;2024-01-07T16:10:52;49.05;;;9.93;;
75667;SDS011;64266;48.798;44.756;2024-01-07T16:15:59;48.15;;;10.88;;
75667;SDS011;64266;48.798;44.756;2024-01-07T16:26:07;36.95;;;9.30;;
75667;SDS011;64266;48.798;44.756;2024-01-07T16:31:13;27.63;;;9.48;;
75667;SDS011;64266;48.798;44.756;2024-01-07T16:36:15;42.22;;;9.13;;
75667;SDS011;64266;48.798;44.756;2024-01-07T16:41:18;34.00;;;8.68;;
75667;SDS011;64266;48.798;44.756;2024-01-07T16:46:21;41.15;;;8.90;;
75667;SDS011;64266;48.798;44.756;2024-01-07T16:51:25;38.05;;;10.75;;
75667;SDS011;64266;48.798;44.756;2024-01-07T16:56:28;22.25;;;7.88;;
75667;SDS011;64266;48.798;44.756;2024-01-07T17:01:33;33.72;;;7.50;;
75667;SDS011;64266;48.798;44.756;2024-01-07T17:06:37;37.65;;;7.88;;
75667;SDS011;64266;48.798;44.756;2024-01-07T17:11:40;41.53;;;8.27;;
75667;SDS011;64266;48.798;44.756;2024-01-07T17:16:43;31.85;;;7.57;;
75667;SDS011;64266;48.798;44.756;2024-01-07T17:21:48;28.35;;;7.97;;
75667;SDS011;64266;48.798;44.756;2024-01-07T17:26:53;19.95;;;7.72;;
75667;SDS011;64266;48.798;44.756;2024-01-07T17:31:58;28.33;;;9.00;;
75667;SDS011;64266;48.798;44.756;2024-01-07T17:37:02;23.08;;;7.47;;
75667;SDS011;64266;48.798;44.756;2024-01-07T17:42:05;15.15;;;6.25;;
75667;SDS011;64266;48.798;44.756;2024-01-07T17:47:10;32.67;;;8.63;;
75667;SDS011;64266;48.798;44.756;2024-01-07T17:52:14;25.02;;;8.35;;
75667;SDS011;64266;48.798;44.756;2024-01-07T17:57:17;16.00;;;6.63;;
75667;SDS011;64266;48.798;44.756;2024-01-07T18:02:21;27.02;;;8.73;;
75667;SDS011;64266;48.798;44.756;2024-01-07T18:07:26;22.20;;;8.63;;
75667;SDS011;64266;48.798;44.756;2024-01-07T18:12:30;27.90;;;7.95;;
75667;SDS011;64266;48.798;44.756;2024-01-07T18:17:33;25.63;;;7.95;;
75667;SDS011;64266;48.798;44.756;2024-01-07T18:22:38;39.72;;;9.40;;
75667;SDS011;64266;48.798;44.756;2024-01-07T18:27:42;21.58;;;7.47;;
75667;SDS011;64266;48.798;44.756;2024-01-07T18:32:46;25.55;;;9.13;;
75667;SDS011;64266;48.798;44.756;2024-01-07T18:37:50;26.33;;;9.75;;
75667;SDS011;64266;48.798;44.756;2024-01-07T18:42:53;26.33;;;9.32;;
75667;SDS011;64266;48.798;44.756;2024-01-07T18:47:57;28.77;;;8.65;;
75667;SDS011;64266;48.798;44.756;2024-01-07T18:53:00;27.95;;;9.02;;
75667;SDS011;64266;48.798;44.756;2024-01-07T18:58:04;33.25;;;10.75;;
75667;SDS011;64266;48.798;44.756;2024-01-07T19:03:07;23.10;;;7.65;;
75667;SDS011;64266;48.798;44.756;2024-01-07T19:08:11;24.30;;;9.65;;
75667;SDS011;64266;48.798;44.756;2024-01-07T19:13:14;16.23;;;6.55;;
75667;SDS011;64266;48.798;44.756;2024-01-07T19:18:17;35.38;;;9.48;;
75667;SDS011;64266;48.798;44.756;2024-01-07T19:23:21;19.77;;;9.52;;
75667;SDS011;64266;48.798;44.756;2024-01-07T19:28:23;20.60;;;9.35;;
75667;SDS011;64266;48.798;44.756;2024-01-07T19:33:27;22.25;;;9.45;;
75667;SDS011;64266;48.798;44.756;2024-01-07T19:38:31;23.27;;;9.70;;
75667;SDS011;64266;48.798;44.756;2024-01-07T19:43:34;24.65;;;9.27;;
75667;SDS011;64266;48.798;44.756;2024-01-07T19:48:39;12.68;;;6.45;;
75667;SDS011;64266;48.798;44.756;2024-01-07T19:53:43;10.13;;;5.07;;
75667;SDS011;64266;48.798;44.756;2024-01-07T19:58:46;19.73;;;8.90;;
75667;SDS011;64266;48.798;44.756;2024-01-07T20:03:49;17.48;;;7.25;;
75667;SDS011;64266;48.798;44.756;2024-01-07T20:08:53;18.55;;;8.05;;
75667;SDS011;64266;48.798;44.756;2024-01-07T20:13:58;16.92;;;8.35;;
75667;SDS011;64266;48.798;44.756;2024-01-07T20:19:02;18.42;;;7.07;;
75667;SDS011;64266;48.798;44.756;2024-01-07T20:24:05;16.67;;;7.50;;
75667;SDS011;64266;48.798;44.756;2024-01-07T20:29:08;18.08;;;7.93;;
75667;SDS011;64266;48.798;44.756;2024-01-07T20:34:14;14.20;;;6.43;;
75667;SDS011;64266;48.798;44.756;2024-01-07T20:39:17;14.13;;;6.35;;
75667;SDS011;64266;48.798;44.756;2024-01-07T20:44:20;17.25;;;7.40;;
75667;SDS011;64266;48.798;44.756;2024-01-07T20:49:24;17.98;;;8.18;;
75667;SDS011;64266;48.798;44.756;2024-01-07T20:54:27;16.83;;;7.13;;
75667;SDS011;64266;48.798;44.756;2024-01-07T20:59:31;14.43;;;5.85;;
75667;SDS011;64266;48.798;44.756;2024-01-07T21:04:35;18.58;;;6.70;;
75667;SDS011;64266;48.798;44.756;2024-01-07T21:09:39;12.65;;;5.63;;
75667;SDS011;64266;48.798;44.756;2024-01-07T21:14:42;13.85;;;6.03;;
75667;SDS011;64266;48.798;44.756;2024-01-07T21:19:47;18.48;;;8.18;;
75667;SDS011;64266;48.798;44.756;2024-01-07T21:24:51;19.08;;;7.00;;
75667;SDS011;64266;48.798;44.756;2024-01-07T21:29:54;13.73;;;6.13;;
75667;SDS011;64266;48.798;44.756;2024-01-07T21:34:58;16.60;;;7.72;;
75667;SDS011;64266;48.798;44.756;2024-01-07T21:40:04;19.35;;;8.23;;
75667;SDS011;64266;48.798;44.756;2024-01-07T21:45:08;16.52;;;8.02;;
75667;SDS011;64266;48.798;44.756;2024-01-07T21:50:11;10.27;;;5.47;;
75667;SDS011;64266;48.798;44.756;2024-01-07T21:55:16;17.23;;;6.68;;
75667;SDS011;64266;48.798;44.756;2024-01-07T22:00:19;13.98;;;6.90;;
75667;SDS011;64266;48.798;44.756;2024-01-07T22:05:22;13.27;;;5.88;;
75667;SDS011;64266;48.798;44.756;2024-01-07T22:10:25;16.17;;;7.10;;
75667;SDS011;64266;48.798;44.756;2024-01-07T22:15:29;15.48;;;6.63;;
75667;SDS011;64266;48.798;44.756;2024-01-07T22:20:33;13.65;;;6.28;;
75667;SDS011;64266;48.798;44.756;2024-01-07T22:25:37;12.73;;;5.82;;
75667;SDS011;64266;48.798;44.756;2024-01-07T22:30:40;15.27;;;5.75;;
75667;SDS011;64266;48.798;44.756;2024-01-07T22:35:43;17.85;;;7.60;;
75667;SDS011;64266;48.798;44.756;2024-01-07T22:40:46;13.02;;;6.68;;
75667;SDS011;64266;48.798;44.756;2024-01-07T22:45:49;21.20;;;7.13;;
75667;SDS011;64266;48.798;44.756;2024-01-07T22:50:54;12.88;;;5.50;;
75667;SDS011;64266;48.798;44.756;2024-01-07T22:55:57;16.77;;;6.97;;
75667;SDS011;64266;48.798;44.756;2024-01-07T23:01:01;14.27;;;6.60;;
75667;SDS011;64266;48.798;44.756;2024-01-07T23:06:08;15.48;;;6.65;;
75667;SDS011;64266;48.798;44.756;2024-01-07T23:11:11;17.38;;;6.78;;
75667;SDS011;64266;48.798;44.756;2024-01-07T23:16:15;13.90;;;7.40;;
75667;SDS011;64266;48.798;44.756;2024-01-07T23:21:18;16.40;;;5.93;;
75667;SDS011;64266;48.798;44.756;2024-01-07T23:26:22;16.10;;;7.45;;
75667;SDS011;64266;48.798;44.756;2024-01-07T23:31:25;10.50;;;4.43;;
75667;SDS011;64266;48.798;44.756;2024-01-07T23:36:28;14.60;;;6.55;;
75667;SDS011;64266;48.798;44.756;2024-01-07T23:41:31;11.45;;;5.10;;
75667;SDS011;64266;48.798;44.756;2024-01-07T23:46:34;12.25;;;6.75;;
75667;SDS011;64266;48.798;44.756;2024-01-07T23:51:38;13.57;;;5.80;;
75667;SDS011;64266;48.798;44.756;2024-01-07T23:56:41;12.38;;;5.13;;
